Time;durP1;ratioP1;P1;durP2;ratioP2;P2;SDS_P1;SDS_P2;PMS_P1;PMS_P2;Temp;Humidity;BMP_temperature;BMP_pressure;BME280_temperature;BME280_humidity;BME280_pressure;Samples;Min_cycle;Max_cycle;Signal;HPM_P1;HPM_P2
2022/01/18 00:01:16;;;;;;;3.55;0.57;;;;;;;1.78;65.92;98792.27;1766307;79;23304;-57
2022/01/18 00:03:42;;;;;;;3.33;0.90;;;;;;;1.77;66.11;98803.12;1765204;79;21145;-58
2022/01/18 00:06:09;;;;;;;3.87;0.82;;;;;;;1.67;67.84;98799.03;1760351;79;21078;-57
2022/01/18 00:08:36;;;;;;;2.80;0.70;;;;;;;1.55;69.74;98799.88;1770267;79;21093;-57
2022/01/18 00:11:02;;;;;;;2.12;0.65;;;;;;;1.58;70.03;98807.89;1766817;79;21021;-58
2022/01/18 00:13:49;;;;;;;2.87;0.70;;;;;;;1.59;70.11;98807.79;1781268;79;21142;-57
2022/01/18 00:16:28;;;;;;;2.02;0.62;;;;;;;1.57;70.33;98810.97;1773502;79;21078;-57
2022/01/18 00:18:53;;;;;;;2.75;0.75;;;;;;;1.52;71.06;98810.45;1773955;79;21078;-57
2022/01/18 00:21:32;;;;;;;2.42;0.70;;;;;;;1.45;71.62;98818.28;1766972;79;21039;-57
2022/01/18 00:23:56;;;;;;;1.87;0.42;;;;;;;1.41;72.06;98829.77;1730878;80;21079;-57
2022/01/18 00:26:22;;;;;;;2.12;0.53;;;;;;;1.47;71.90;98834.08;1730493;82;21042;-57
2022/01/18 00:28:54;;;;;;;2.42;0.53;;;;;;;1.50;71.52;98842.13;1705813;82;21097;-57
2022/01/18 00:36:36;;;;;;;1.37;0.33;;;;;;;1.29;72.44;98826.23;1759543;79;21073;-57
2022/01/18 00:38:57;;;;;;;1.40;0.30;;;;;;;1.32;72.34;98839.00;1757670;79;21168;-57
2022/01/18 00:41:25;;;;;;;2.22;0.60;;;;;;;1.42;71.78;98845.22;1720693;81;21778;-57
2022/01/18 00:43:52;;;;;;;1.65;0.40;;;;;;;1.46;72.18;98838.92;1741939;81;21508;-57
2022/01/18 00:46:18;;;;;;;0.75;0.30;;;;;;;1.48;72.48;98840.94;1739217;80;21045;-58
2022/01/18 00:48:45;;;;;;;1.07;0.30;;;;;;;1.48;72.67;98846.59;1749052;80;21077;-57
2022/01/18 00:51:13;;;;;;;1.27;0.37;;;;;;;1.37;73.94;98844.70;1746364;80;22018;-57
2022/01/18 00:53:42;;;;;;;1.98;0.55;;;;;;;1.36;76.32;98849.55;1696020;82;21042;-57
2022/01/18 00:56:18;;;;;;;2.90;0.68;;;;;;;1.39;76.51;98864.05;1724590;82;21042;-58
2022/01/18 00:58:41;;;;;;;1.90;0.35;;;;;;;1.28;78.36;98859.59;1745407;80;21587;-59
2022/01/18 01:01:09;;;;;;;1.10;0.40;;;;;;;1.15;79.91;98871.69;1739124;80;21086;-57
2022/01/18 01:03:35;;;;;;;2.25;0.70;;;;;;;0.99;80.92;98866.17;1705684;82;21129;-57
2022/01/18 01:06:03;;;;;;;1.17;0.30;;;;;;;0.93;81.19;98889.43;1714462;83;21041;-57
2022/01/18 01:08:29;;;;;;;3.12;0.47;;;;;;;0.80;81.20;98898.91;1674810;83;21085;-57
2022/01/18 01:10:56;;;;;;;1.25;0.23;;;;;;;0.67;81.02;98905.78;1701887;83;21062;-57
2022/01/18 01:13:24;;;;;;;3.65;0.68;;;;;;;0.57;80.29;98903.41;1711925;83;21079;-57
2022/01/18 02:04:29;;;;;;;3.85;1.20;;;;;;;-2.44;88.06;99082.50;1798876;77;22346;-65
2022/01/18 02:06:55;;;;;;;0.88;0.25;;;;;;;-2.61;84.47;99121.93;1776743;79;21485;-65
2022/01/18 02:09:22;;;;;;;1.55;0.30;;;;;;;-2.56;80.76;99089.53;1776743;79;21035;-64
2022/01/18 02:11:50;;;;;;;2.65;0.40;;;;;;;-2.57;77.73;99101.58;1771036;79;21567;-65
2022/01/18 02:14:20;;;;;;;2.20;0.65;;;;;;;-2.48;74.92;99121.74;1778459;79;21417;-65
2022/01/18 02:22:14;;;;;;;3.15;0.53;;;;;;;-2.17;71.08;99155.54;1752249;79;21139;-64
2022/01/18 02:24:41;;;;;;;0.40;0.08;;;;;;;-2.17;71.46;99143.94;1772109;79;21623;-64
2022/01/18 02:27:07;;;;;;;2.08;0.60;;;;;;;-2.12;69.83;99154.87;1775191;79;21130;-64
2022/01/18 02:29:34;;;;;;;2.92;0.60;;;;;;;-2.19;72.17;99175.40;1772831;79;21732;-64
2022/01/18 02:32:02;;;;;;;1.70;0.40;;;;;;;-2.30;74.72;99181.06;1748176;79;21011;-64
2022/01/18 02:34:28;;;;;;;1.32;0.40;;;;;;;-2.67;80.53;99177.59;1758720;78;21907;-64
2022/01/18 02:36:57;;;;;;;3.35;0.75;;;;;;;-3.21;87.25;99196.64;1782902;78;21101;-64
2022/01/18 02:39:25;;;;;;;3.17;0.50;;;;;;;-3.49;88.61;99172.09;1745774;79;21553;-64
2022/01/18 02:41:55;;;;;;;2.15;0.75;;;;;;;-3.52;88.98;99193.25;1777948;78;21547;-64
2022/01/18 02:44:21;;;;;;;1.00;0.17;;;;;;;-3.49;89.24;99199.10;1774663;79;21011;-64
2022/01/18 02:46:48;;;;;;;2.20;0.50;;;;;;;-3.39;89.48;99193.13;1748033;80;21222;-64
2022/01/18 02:49:14;;;;;;;3.77;0.60;;;;;;;-3.34;89.68;99195.52;1778061;79;21035;-66
2022/01/18 02:51:40;;;;;;;3.77;0.50;;;;;;;-3.44;89.70;99219.50;1775023;79;21049;-66
2022/01/18 02:54:09;;;;;;;3.08;0.37;;;;;;;-3.51;89.63;99210.34;1771631;79;21047;-66
2022/01/18 02:56:46;;;;;;;0.90;0.30;;;;;;;-3.42;89.74;99249.84;1772808;79;21058;-65
2022/01/18 02:59:20;;;;;;;1.10;0.23;;;;;;;-3.64;89.90;99254.55;1776890;79;22038;-65
2022/01/18 03:04:32;;;;;;;4.25;0.50;;;;;;;-3.93;89.71;99259.56;1774690;79;21035;-64
2022/01/18 03:06:59;;;;;;;1.77;0.42;;;;;;;-3.96;89.62;99269.50;1773414;79;21055;-64
2022/01/18 03:09:27;;;;;;;3.45;0.50;;;;;;;-3.80;89.62;99276.62;1770920;79;21022;-65
2022/01/18 03:11:53;;;;;;;2.40;0.65;;;;;;;-3.59;89.51;99274.49;1771911;79;21720;-64
2022/01/18 03:14:19;;;;;;;2.15;0.50;;;;;;;-3.75;89.29;99266.98;1769806;79;21039;-64
2022/01/18 03:16:46;;;;;;;1.98;0.30;;;;;;;-3.73;89.19;99303.78;1744893;80;21470;-65
2022/01/18 03:19:12;;;;;;;1.92;0.47;;;;;;;-3.77;88.98;99309.46;1767171;79;21049;-65
2022/01/18 03:21:39;;;;;;;3.42;0.62;;;;;;;-3.74;88.86;99308.52;1770335;79;21610;-65
2022/01/18 03:24:31;;;;;;;1.50;0.33;;;;;;;-3.62;88.80;99330.34;1762522;79;21020;-65
2022/01/18 03:29:27;;;;;;;2.65;0.80;;;;;;;-3.55;88.67;99335.20;1705797;82;21062;-66
2022/01/18 03:31:54;;;;;;;2.58;0.60;;;;;;;-3.51;88.71;99355.63;1765231;79;21109;-66
2022/01/18 03:34:20;;;;;;;1.40;0.40;;;;;;;-3.66;88.80;99347.63;1752782;79;21086;-65
2022/01/18 03:36:47;;;;;;;1.67;0.50;;;;;;;-3.51;88.92;99398.93;1757565;79;21061;-65
2022/01/18 03:39:13;;;;;;;3.22;0.50;;;;;;;-3.92;88.77;99345.61;1771721;79;21613;-65
2022/01/18 03:41:40;;;;;;;1.75;0.50;;;;;;;-3.79;88.81;99357.98;1772829;79;22248;-66
2022/01/18 03:44:06;;;;;;;1.98;0.45;;;;;;;-3.70;89.02;99368.37;1769598;79;21077;-65
2022/01/18 03:46:36;;;;;;;1.95;0.30;;;;;;;-3.85;88.99;99356.50;1767237;79;21045;-65
2022/01/18 03:49:04;;;;;;;1.67;0.50;;;;;;;-3.77;88.89;99360.05;1764466;79;21154;-65
2022/01/18 03:51:31;;;;;;;1.62;0.47;;;;;;;-3.82;86.85;99364.52;1748284;79;21034;-65
2022/01/18 03:53:57;;;;;;;1.42;0.40;;;;;;;-3.95;80.16;99371.84;1770230;79;21099;-65
2022/01/18 03:56:24;;;;;;;6.08;0.60;;;;;;;-3.91;75.97;99379.84;1730378;81;21083;-65
2022/01/18 03:58:50;;;;;;;1.82;0.55;;;;;;;-3.85;75.07;99378.77;1740210;79;21121;-65
2022/01/18 04:01:16;;;;;;;1.55;0.40;;;;;;;-3.74;75.21;99391.62;1774547;79;21113;-65
2022/01/18 04:03:43;;;;;;;2.15;0.50;;;;;;;-3.88;72.21;99381.45;1760404;79;21062;-65
2022/01/18 04:06:09;;;;;;;2.05;0.53;;;;;;;-3.61;73.44;99410.46;1760111;79;21471;-65
2022/01/18 04:08:36;;;;;;;1.80;0.37;;;;;;;-3.60;71.71;99397.55;1743623;80;21051;-65
2022/01/18 04:11:02;;;;;;;1.17;0.33;;;;;;;-3.76;69.47;99400.30;1738025;79;21067;-65
2022/01/18 04:13:29;;;;;;;1.90;0.50;;;;;;;-3.69;71.30;99418.45;1759683;79;21120;-65
2022/01/18 04:15:55;;;;;;;3.45;0.30;;;;;;;-3.83;67.32;99443.80;1762425;79;21677;-64
2022/01/18 04:28:57;;;;;;;0.57;0.10;;;;;;;-3.75;64.62;99450.80;1757904;79;21787;-65
2022/01/18 04:31:24;;;;;;;2.02;0.60;;;;;;;-3.45;66.54;99458.29;1760665;79;21653;-65
2022/01/18 04:33:51;;;;;;;1.70;0.37;;;;;;;-3.45;64.56;99472.44;1765873;79;21054;-65
2022/01/18 04:36:17;;;;;;;0.88;0.20;;;;;;;-3.49;63.45;99447.28;1758073;79;21091;-64
2022/01/18 04:38:44;;;;;;;0.47;0.10;;;;;;;-3.37;68.36;99468.67;1758737;79;21137;-64
2022/01/18 04:41:14;;;;;;;1.55;0.35;;;;;;;-3.34;64.54;99488.78;1759127;79;21010;-64
2022/01/18 04:48:51;;;;;;;1.57;0.42;;;;;;;-3.19;65.32;99505.75;1755917;79;21142;-65
2022/01/18 04:51:17;;;;;;;2.15;0.53;;;;;;;-3.09;67.62;99501.52;1761579;79;21061;-64
2022/01/18 04:53:53;;;;;;;2.40;0.35;;;;;;;-3.32;64.32;99517.39;1747928;79;21039;-65
2022/01/18 04:56:27;;;;;;;0.88;0.25;;;;;;;-3.37;66.26;99525.73;1745100;80;21046;-65
2022/01/18 04:58:47;;;;;;;2.05;0.40;;;;;;;-3.40;65.73;99525.38;1734431;79;21541;-65
2022/01/18 05:01:13;;;;;;;3.60;0.62;;;;;;;-3.28;67.08;99512.52;1730501;80;21082;-64
2022/01/18 05:03:39;;;;;;;1.02;0.30;;;;;;;-3.42;64.99;99528.91;1759098;79;21846;-64
2022/01/18 05:06:09;;;;;;;0.80;0.23;;;;;;;-3.41;66.30;99521.14;1699772;82;21094;-64
2022/01/18 05:08:37;;;;;;;1.72;0.35;;;;;;;-3.36;66.88;99534.67;1763791;79;21078;-65
2022/01/18 05:11:04;;;;;;;4.62;0.70;;;;;;;-3.42;66.81;99537.46;1744344;80;21090;-65
2022/01/18 05:19:03;;;;;;;1.92;0.50;;;;;;;-3.47;65.65;99560.39;1760418;79;21572;-65
2022/01/18 05:21:29;;;;;;;1.40;0.35;;;;;;;-3.42;65.80;99558.50;1757351;79;22335;-65
2022/01/18 05:23:54;;;;;;;3.80;0.40;;;;;;;-3.31;66.59;99567.10;1741130;80;22208;-65
2022/01/18 05:26:22;;;;;;;4.08;0.60;;;;;;;-3.43;64.37;99569.24;1749601;79;21591;-68
2022/01/18 05:28:48;;;;;;;1.22;0.30;;;;;;;-3.37;63.59;99574.61;1760198;79;21136;-66
2022/01/18 05:31:15;;;;;;;1.47;0.55;;;;;;;-3.42;63.14;99585.05;1742190;80;21694;-66
2022/01/18 05:33:42;;;;;;;2.47;0.75;;;;;;;-3.37;63.70;99589.58;1761835;79;21102;-67
2022/01/18 05:36:10;;;;;;;1.85;0.35;;;;;;;-3.34;63.58;99597.66;1762117;79;21071;-67
2022/01/18 05:38:36;;;;;;;3.17;0.90;;;;;;;-3.09;68.82;99595.47;1758868;79;21341;-66
2022/01/18 05:41:05;;;;;;;3.12;0.70;;;;;;;-3.23;65.31;99604.98;1759776;79;21231;-67
2022/01/18 05:43:32;;;;;;;3.20;0.70;;;;;;;-3.37;62.33;99591.33;1759640;79;21086;-66
2022/01/18 05:45:58;;;;;;;1.75;0.30;;;;;;;-3.46;62.36;99604.50;1757388;79;21079;-65
2022/01/18 05:48:24;;;;;;;1.92;0.37;;;;;;;-3.25;64.41;99606.77;1737004;80;21889;-66
2022/01/18 05:50:53;;;;;;;2.22;0.60;;;;;;;-3.07;66.62;99613.00;1756561;79;21031;-66
2022/01/18 05:53:19;;;;;;;1.05;0.35;;;;;;;-3.17;64.55;99622.78;1739953;80;23441;-65
2022/01/18 05:55:45;;;;;;;3.27;0.80;;;;;;;-2.96;70.42;99627.58;1735654;80;21130;-65
2022/01/18 05:58:11;;;;;;;4.42;0.65;;;;;;;-3.20;62.23;99646.88;1734685;79;21055;-64
2022/01/18 06:00:40;;;;;;;1.87;0.47;;;;;;;-3.21;62.64;99645.22;1755856;79;21103;-64
2022/01/18 06:03:16;;;;;;;1.35;0.45;;;;;;;-3.14;62.70;99650.13;1758756;79;21118;-65
2022/01/18 06:08:19;;;;;;;2.42;0.60;;;;;;;-3.28;62.04;99677.17;1754432;79;21067;-67
2022/01/18 06:10:47;;;;;;;1.90;0.30;;;;;;;-3.17;61.45;99684.55;1758272;79;21102;-66
2022/01/18 06:13:14;;;;;;;2.15;0.62;;;;;;;-3.17;61.62;99681.52;1761441;79;21750;-65
2022/01/18 06:15:40;;;;;;;0.60;0.20;;;;;;;-3.18;60.16;99678.56;1737211;79;21668;-66
2022/01/18 06:18:06;;;;;;;2.30;0.60;;;;;;;-2.96;63.02;99696.26;1760415;79;21106;-67
2022/01/18 06:20:34;;;;;;;2.33;0.82;;;;;;;-3.08;60.96;99678.22;1758292;79;21070;-66
2022/01/18 06:23:00;;;;;;;4.72;1.05;;;;;;;-2.88;67.51;99682.21;1737400;80;21149;-67
2022/01/18 06:25:27;;;;;;;2.77;0.57;;;;;;;-2.88;61.65;99680.92;1739834;79;21781;-68
2022/01/18 06:27:53;;;;;;;1.55;0.40;;;;;;;-2.96;59.54;99688.08;1764135;79;21027;-66
2022/01/18 06:30:20;;;;;;;2.22;0.55;;;;;;;-3.00;59.78;99692.50;1683925;83;21094;-65
2022/01/18 06:32:46;;;;;;;2.17;0.60;;;;;;;-2.88;61.00;99700.23;1763768;79;21731;-65
2022/01/18 06:35:13;;;;;;;2.55;0.50;;;;;;;-2.81;63.25;99702.14;1762676;79;21038;-68
2022/01/18 06:37:40;;;;;;;2.30;0.53;;;;;;;-2.75;60.97;99711.41;1762234;79;21055;-66
2022/01/18 06:40:10;;;;;;;1.60;0.50;;;;;;;-2.92;58.29;99705.57;1684842;83;20962;-68
2022/01/18 06:42:37;;;;;;;1.22;0.30;;;;;;;-3.03;57.19;99711.08;1679114;83;21051;-68
2022/01/18 06:45:05;;;;;;;2.62;0.90;;;;;;;-2.90;57.85;99716.64;1759127;79;21035;-67
2022/01/18 06:47:32;;;;;;;2.37;0.55;;;;;;;-2.86;59.04;99730.66;1763236;79;21943;-67
2022/01/18 06:49:58;;;;;;;2.40;0.82;;;;;;;-2.82;59.06;99727.06;1769212;79;21122;-66
2022/01/18 06:52:25;;;;;;;4.22;0.60;;;;;;;-2.84;58.47;99732.72;1760195;79;21129;-66
2022/01/18 06:54:51;;;;;;;2.45;0.75;;;;;;;-2.86;59.25;99729.36;1766050;79;21760;-66
2022/01/18 06:57:18;;;;;;;2.33;0.53;;;;;;;-2.85;58.37;99725.05;1755323;79;21055;-66
2022/01/18 06:59:44;;;;;;;3.42;0.78;;;;;;;-3.03;56.05;99723.95;1764425;79;21822;-66
2022/01/18 07:02:11;;;;;;;3.50;0.78;;;;;;;-3.13;56.19;99727.28;1758188;79;21062;-66
2022/01/18 07:04:38;;;;;;;3.62;0.75;;;;;;;-2.93;57.29;99733.02;1765100;79;21027;-64
2022/01/18 07:07:05;;;;;;;2.40;0.90;;;;;;;-3.00;56.18;99743.15;1770755;79;21147;-66
2022/01/18 07:09:32;;;;;;;3.12;0.70;;;;;;;-2.98;56.82;99746.51;1763613;79;21070;-66
2022/01/18 07:12:00;;;;;;;2.83;1.00;;;;;;;-2.91;57.88;99736.38;1764042;79;21080;-64
2022/01/18 07:14:26;;;;;;;2.80;1.05;;;;;;;-3.02;55.94;99747.52;1760115;79;21129;-65
2022/01/18 07:16:52;;;;;;;2.05;0.75;;;;;;;-2.87;56.96;99770.61;1743078;79;21047;-67
2022/01/18 07:19:21;;;;;;;3.87;0.88;;;;;;;-2.94;56.98;99786.72;1762146;79;21035;-67
2022/01/18 07:21:47;;;;;;;3.00;0.90;;;;;;;-3.02;56.50;99762.97;1699376;82;21071;-67
2022/01/18 07:24:18;;;;;;;2.75;0.98;;;;;;;-2.79;59.45;99759.60;1761129;79;21646;-68
2022/01/18 07:26:43;;;;;;;1.57;0.50;;;;;;;-2.89;57.24;99790.39;1760694;79;21549;-67
2022/01/18 07:29:10;;;;;;;3.83;1.00;;;;;;;-2.67;58.97;99770.75;1725888;81;21004;-68
2022/01/18 07:31:37;;;;;;;3.33;0.85;;;;;;;-2.86;56.19;99778.28;1722965;81;21087;-67
2022/01/18 07:34:03;;;;;;;3.67;1.32;;;;;;;-2.85;56.06;99752.91;1701035;81;21989;-67
2022/01/18 07:36:30;;;;;;;2.12;0.70;;;;;;;-2.73;56.16;99774.81;1750037;79;21047;-67
2022/01/18 07:38:56;;;;;;;2.12;0.55;;;;;;;-2.99;56.24;99764.15;1739937;79;21018;-67
2022/01/18 07:41:23;;;;;;;2.75;0.95;;;;;;;-2.79;56.37;99780.20;1737302;79;21081;-67
2022/01/18 07:43:49;;;;;;;2.83;0.95;;;;;;;-2.75;56.28;99780.94;1757989;79;21140;-65
2022/01/18 07:46:16;;;;;;;3.52;1.15;;;;;;;-2.89;55.30;99781.38;1756050;79;21027;-65
2022/01/18 07:48:42;;;;;;;4.65;1.22;;;;;;;-2.97;53.75;99812.55;1756917;79;21097;-65
2022/01/18 07:51:08;;;;;;;3.42;0.65;;;;;;;-2.97;55.05;99799.69;1757313;79;21059;-66
2022/01/18 07:53:35;;;;;;;5.75;0.98;;;;;;;-2.71;56.24;99805.67;1699746;82;21087;-66
2022/01/18 07:56:02;;;;;;;4.90;0.80;;;;;;;-2.64;54.38;99805.84;1759605;79;21482;-64
2022/01/18 07:58:29;;;;;;;2.25;0.60;;;;;;;-2.72;53.76;99838.31;1760121;79;21000;-66
2022/01/18 08:00:57;;;;;;;2.40;0.88;;;;;;;-2.69;53.96;99819.33;1760760;79;20972;-66
2022/01/18 08:03:23;;;;;;;3.35;0.85;;;;;;;-2.62;53.76;99847.86;1759926;79;21551;-66
2022/01/18 08:05:52;;;;;;;2.47;0.68;;;;;;;-2.53;53.67;99841.09;1761646;79;21062;-63
2022/01/18 08:08:18;;;;;;;2.77;0.72;;;;;;;-2.45;53.17;99851.97;1761575;79;23160;-65
2022/01/18 08:10:44;;;;;;;3.92;1.22;;;;;;;-2.56;51.75;99837.33;1758611;79;21061;-67
2022/01/18 08:13:11;;;;;;;1.37;0.45;;;;;;;-2.54;53.36;99860.47;1763959;79;21667;-66
2022/01/18 08:15:38;;;;;;;2.40;0.62;;;;;;;-2.36;52.92;99858.99;1765482;79;21078;-67
2022/01/18 08:18:12;;;;;;;3.27;1.00;;;;;;;-2.40;51.99;99872.86;1738324;79;21062;-66
2022/01/18 08:20:39;;;;;;;2.12;0.60;;;;;;;-2.40;51.23;99888.32;1767374;79;21156;-66
2022/01/18 08:23:06;;;;;;;3.85;1.02;;;;;;;-2.43;50.85;99883.67;1770210;79;21215;-65
2022/01/18 08:25:34;;;;;;;3.52;0.70;;;;;;;-2.47;51.47;99894.13;1769098;79;21449;-65
2022/01/18 08:28:02;;;;;;;2.05;0.60;;;;;;;-2.35;51.57;99895.47;1765923;79;22321;-66
2022/01/18 08:30:28;;;;;;;2.85;0.65;;;;;;;-2.20;51.96;99899.23;1765715;79;21027;-66
2022/01/18 08:32:55;;;;;;;2.60;0.80;;;;;;;-2.38;51.60;99895.12;1740070;80;21223;-65
2022/01/18 08:35:23;;;;;;;2.77;0.72;;;;;;;-2.38;50.96;99897.70;1762151;79;21629;-66
2022/01/18 08:37:50;;;;;;;2.87;0.65;;;;;;;-2.45;51.59;99898.81;1737922;80;21055;-64
2022/01/18 08:40:16;;;;;;;4.47;0.90;;;;;;;-2.56;50.62;99955.00;1772570;79;21464;-65
2022/01/18 08:42:43;;;;;;;2.27;0.60;;;;;;;-2.52;51.87;99912.34;1771054;79;21030;-66
2022/01/18 08:45:10;;;;;;;2.85;0.78;;;;;;;-2.46;50.54;99906.12;1772527;79;21108;-65
2022/01/18 08:47:36;;;;;;;2.17;0.57;;;;;;;-2.44;50.84;99924.52;1764928;79;21042;-65
2022/01/18 08:50:04;;;;;;;5.17;1.05;;;;;;;-2.45;50.62;99906.53;1774069;79;21050;-63
2022/01/18 08:52:31;;;;;;;1.98;0.50;;;;;;;-2.32;49.88;99921.11;1743215;79;21013;-59
2022/01/18 08:54:57;;;;;;;1.70;0.50;;;;;;;-2.02;49.47;99918.37;1739808;80;21063;-60
2022/01/18 08:57:24;;;;;;;3.22;0.80;;;;;;;-1.84;49.02;99913.84;1767318;79;21091;-59
2022/01/18 08:59:52;;;;;;;2.55;0.70;;;;;;;-1.60;47.60;99910.79;1733215;80;21067;-60
2022/01/18 09:02:19;;;;;;;2.47;0.50;;;;;;;-1.31;46.52;99927.77;1768695;79;21106;-58
2022/01/18 09:04:46;;;;;;;2.30;0.70;;;;;;;-1.31;47.18;99935.97;1768050;79;21154;-59
2022/01/18 09:07:12;;;;;;;4.80;0.93;;;;;;;-1.28;47.81;99941.45;1762646;79;21074;-59
2022/01/18 09:09:41;;;;;;;3.00;0.80;;;;;;;-1.22;47.95;99915.41;1756538;79;21156;-60
2022/01/18 09:12:11;;;;;;;5.22;0.98;;;;;;;-1.09;47.59;99924.36;1764165;79;21063;-60
2022/01/18 09:14:38;;;;;;;2.72;0.82;;;;;;;-0.97;46.01;99947.11;1739594;79;21082;-58
2022/01/18 09:17:05;;;;;;;2.37;0.90;;;;;;;-0.98;46.79;99931.67;1759669;79;21102;-67
2022/01/18 09:19:31;;;;;;;2.50;0.75;;;;;;;-1.10;45.95;99945.91;1762522;79;21016;-70
2022/01/18 09:21:59;;;;;;;2.98;0.82;;;;;;;-1.53;47.67;99946.23;1741857;80;21261;-67
2022/01/18 09:24:26;;;;;;;3.22;0.82;;;;;;;-1.70;47.41;99959.33;1742882;79;21031;-67
2022/01/18 09:26:53;;;;;;;2.72;0.75;;;;;;;-1.76;47.65;99941.48;1764627;79;21224;-66
2022/01/18 09:29:20;;;;;;;3.72;0.70;;;;;;;-1.88;48.20;99980.63;1740156;80;21042;-66
2022/01/18 09:31:47;;;;;;;3.37;0.95;;;;;;;-1.84;47.53;99958.97;1765803;79;21109;-66
2022/01/18 09:34:13;;;;;;;3.27;0.88;;;;;;;-1.80;47.90;99993.23;1741568;79;21153;-65
2022/01/18 09:36:40;;;;;;;4.90;1.20;;;;;;;-1.98;47.19;99946.58;1761251;79;21779;-65
2022/01/18 09:39:07;;;;;;;2.92;0.88;;;;;;;-2.02;47.09;99919.66;1762736;79;21105;-62
2022/01/18 09:41:38;;;;;;;2.10;0.53;;;;;;;-2.10;47.35;99947.84;1761841;79;21551;-64
2022/01/18 09:44:02;;;;;;;1.10;0.40;;;;;;;-2.10;47.33;100007.14;1675055;82;21161;-64
2022/01/18 09:46:29;;;;;;;2.92;0.80;;;;;;;-2.00;47.30;100001.66;1760315;79;21199;-64
2022/01/18 09:48:56;;;;;;;2.55;0.68;;;;;;;-2.03;47.16;100003.91;1763074;79;21575;-62
2022/01/18 09:51:23;;;;;;;4.62;0.90;;;;;;;-2.02;46.76;99982.83;1762214;79;21091;-62
2022/01/18 09:53:50;;;;;;;2.35;0.68;;;;;;;-1.95;46.66;100016.52;1757181;79;21103;-63
2022/01/18 09:56:17;;;;;;;2.10;0.47;;;;;;;-1.92;46.26;100009.97;1754645;79;21094;-62
2022/01/18 09:58:44;;;;;;;1.62;0.72;;;;;;;-1.96;46.53;100020.02;1759226;79;21155;-62
2022/01/18 10:01:11;;;;;;;1.45;0.47;;;;;;;-1.96;46.85;100018.72;1742059;80;21036;-63
2022/01/18 10:03:41;;;;;;;3.95;1.17;;;;;;;-1.90;46.10;100017.20;1765906;79;21008;-63
2022/01/18 10:06:08;;;;;;;2.37;0.50;;;;;;;-1.90;46.59;100015.91;1761959;79;21109;-64
2022/01/18 10:08:50;;;;;;;3.17;0.55;;;;;;;-1.94;46.61;100013.06;1740207;79;21074;-64
2022/01/18 10:11:17;;;;;;;1.55;0.40;;;;;;;-1.92;47.13;100029.31;1737127;80;21059;-64
2022/01/18 10:13:46;;;;;;;2.98;0.40;;;;;;;-1.77;46.04;100028.78;1763350;79;21066;-64
2022/01/18 10:16:21;;;;;;;3.95;0.68;;;;;;;-1.84;46.10;100020.88;1767538;79;21074;-64
2022/01/18 10:18:53;;;;;;;2.40;0.60;;;;;;;-1.82;45.67;100019.08;1761060;79;21086;-63
2022/01/18 10:21:40;;;;;;;2.08;0.42;;;;;;;-1.87;45.75;100014.52;1738707;80;21110;-63
2022/01/18 10:24:16;;;;;;;2.92;0.53;;;;;;;-1.79;46.16;100031.87;1761372;79;21153;-64
2022/01/18 10:26:45;;;;;;;2.67;0.88;;;;;;;-1.69;45.38;100018.20;1735702;79;21144;-64
2022/01/18 10:29:12;;;;;;;2.30;0.60;;;;;;;-1.84;45.59;100036.34;1759635;79;21039;-64
2022/01/18 10:31:54;;;;;;;2.55;0.72;;;;;;;-1.81;46.19;100029.80;1761094;79;21069;-63
2022/01/18 10:37:13;;;;;;;2.83;0.80;;;;;;;-1.74;46.05;100038.16;1758894;79;21348;-64
2022/01/18 10:39:56;;;;;;;4.58;1.35;;;;;;;-1.78;45.83;100053.33;1762626;79;21102;-67
2022/01/18 10:42:38;;;;;;;2.55;0.60;;;;;;;-1.76;45.51;100051.11;1760841;79;21795;-66
2022/01/18 10:45:30;;;;;;;2.58;0.95;;;;;;;-1.79;46.19;100071.84;1739638;80;21063;-64
2022/01/18 10:48:03;;;;;;;2.47;0.60;;;;;;;-1.75;45.82;100038.62;1761964;79;21109;-65
2022/01/18 10:50:35;;;;;;;1.77;0.42;;;;;;;-1.78;45.43;100056.78;1758826;79;22362;-65
2022/01/18 10:53:23;;;;;;;2.30;0.60;;;;;;;-1.78;45.59;100069.67;1738109;80;21043;-65
2022/01/18 10:55:51;;;;;;;3.27;0.75;;;;;;;-1.76;45.87;100075.62;1734683;79;21416;-66
2022/01/18 10:58:21;;;;;;;5.75;0.95;;;;;;;-1.80;46.48;100076.62;1741481;79;21086;-63
2022/01/18 11:00:47;;;;;;;3.25;0.95;;;;;;;-1.71;45.87;100074.18;1761385;79;21395;-64
2022/01/18 11:03:14;;;;;;;2.72;0.62;;;;;;;-1.66;46.70;100092.92;1735987;80;21135;-64
2022/01/18 11:05:43;;;;;;;3.17;0.85;;;;;;;-1.62;47.29;100080.75;1734489;80;21051;-63
2022/01/18 11:08:09;;;;;;;1.35;0.40;;;;;;;-1.57;47.01;100062.91;1722856;81;21081;-61
2022/01/18 11:10:39;;;;;;;2.85;0.80;;;;;;;-1.50;47.13;100083.76;1739040;80;22178;-63
2022/01/18 11:13:10;;;;;;;2.08;0.50;;;;;;;-1.39;46.34;100069.17;1747917;80;21016;-63
2022/01/18 11:15:39;;;;;;;2.92;0.68;;;;;;;-1.44;45.63;100090.89;1718229;80;21085;-64
2022/01/18 11:18:14;;;;;;;3.30;1.15;;;;;;;-1.37;45.13;100097.05;1721032;80;21177;-63
2022/01/18 11:20:38;;;;;;;4.03;0.45;;;;;;;-1.41;45.34;100077.42;1743354;80;22258;-64
2022/01/18 11:23:05;;;;;;;4.72;0.75;;;;;;;-1.55;44.50;100109.31;1746623;80;21078;-63
2022/01/18 11:25:32;;;;;;;2.17;0.62;;;;;;;-1.60;44.59;100100.43;1723186;82;21035;-62
2022/01/18 11:27:59;;;;;;;1.77;0.45;;;;;;;-1.57;45.74;100106.78;1740506;80;22221;-64
2022/01/18 11:30:31;;;;;;;1.77;0.60;;;;;;;-1.52;45.82;100091.98;1724027;80;21058;-63
2022/01/18 11:33:00;;;;;;;2.17;0.50;;;;;;;-1.51;45.23;100107.03;1740677;80;21153;-61
2022/01/18 11:35:51;;;;;;;2.58;0.50;;;;;;;-1.53;45.38;100111.38;1744097;80;21068;-63
2022/01/18 11:38:48;;;;;;;2.98;0.80;;;;;;;-1.67;44.98;100111.03;1717895;81;21087;-63
2022/01/18 11:41:32;;;;;;;2.77;0.70;;;;;;;-1.61;45.53;100113.41;1742479;80;21894;-63
2022/01/18 11:43:59;;;;;;;1.90;0.65;;;;;;;-1.59;45.18;100066.46;1725533;80;21584;-61
2022/01/18 11:46:32;;;;;;;3.58;0.80;;;;;;;-1.67;45.08;100114.90;1699211;82;21332;-64
2022/01/18 11:49:07;;;;;;;2.05;0.68;;;;;;;-1.63;45.27;100128.08;1736464;80;20991;-63
2022/01/18 11:51:48;;;;;;;3.83;0.82;;;;;;;-1.61;45.97;100090.19;1706530;82;21467;-63
2022/01/18 11:57:28;;;;;;;5.35;1.10;;;;;;;-1.60;46.21;100121.53;1742585;80;21007;-62
2022/01/18 12:00:07;;;;;;;3.83;1.07;;;;;;;-1.61;45.72;100123.27;1747611;80;21039;-62
2022/01/18 12:02:44;;;;;;;5.15;1.70;;;;;;;-1.70;46.29;100150.23;1717769;81;21038;-63
2022/01/18 12:05:19;;;;;;;4.47;1.42;;;;;;;-1.58;47.02;100131.34;1743816;80;21086;-65
2022/01/18 12:07:57;;;;;;;3.70;0.85;;;;;;;-1.63;46.61;100138.39;1741204;80;21242;-63
2022/01/18 12:10:38;;;;;;;2.52;0.60;;;;;;;-1.71;46.71;100119.32;1724361;80;21049;-61
2022/01/18 12:13:23;;;;;;;2.67;0.75;;;;;;;-1.72;47.44;100171.34;1737309;80;21957;-60
2022/01/18 12:15:51;;;;;;;3.08;0.70;;;;;;;-1.78;47.13;100157.38;1718132;82;21097;-60
2022/01/18 12:18:21;;;;;;;5.10;1.12;;;;;;;-1.66;48.08;100148.81;1743607;80;21607;-59
2022/01/18 12:20:52;;;;;;;4.12;1.10;;;;;;;-1.60;47.63;100198.48;1739125;80;21414;-59
2022/01/18 12:23:42;;;;;;;2.98;0.88;;;;;;;-1.57;47.17;100157.55;1743169;80;22118;-64
2022/01/18 12:26:47;;;;;;;5.42;1.15;;;;;;;-1.70;47.69;100161.84;1744358;80;20932;-64
2022/01/18 12:29:23;;;;;;;3.60;0.70;;;;;;;-1.69;48.10;100201.38;1727000;80;21146;-61
2022/01/18 12:32:05;;;;;;;3.20;0.68;;;;;;;-1.70;48.36;100213.86;1741889;80;21063;-63
2022/01/18 12:34:50;;;;;;;2.35;0.72;;;;;;;-1.63;49.22;100229.56;1737674;80;21184;-63
2022/01/18 12:37:21;;;;;;;3.25;0.75;;;;;;;-1.64;49.00;100222.70;1735743;80;21113;-60
2022/01/18 12:45:23;;;;;;;3.25;0.98;;;;;;;-0.74;46.48;100225.67;1741887;80;21732;-66
2022/01/18 12:47:59;;;;;;;2.15;0.60;;;;;;;-0.94;46.87;100254.37;1739507;80;26816;-65
2022/01/18 12:50:37;;;;;;;5.40;1.07;;;;;;;-1.07;47.53;100249.68;1746123;80;21121;-64
2022/01/18 12:53:15;;;;;;;2.05;0.70;;;;;;;-1.01;47.00;100260.64;1723053;82;21075;-65
2022/01/18 12:55:55;;;;;;;2.65;0.70;;;;;;;-0.95;47.11;100255.70;1742880;80;21180;-64
2022/01/18 12:58:34;;;;;;;2.87;0.65;;;;;;;-1.10;48.54;100266.56;1748226;79;21110;-66
2022/01/18 13:01:10;;;;;;;1.57;0.45;;;;;;;-1.03;48.41;100255.95;1738300;80;21051;-64
2022/01/18 13:03:39;;;;;;;1.57;0.60;;;;;;;-1.09;48.12;100269.52;1741486;80;21027;-66
2022/01/18 13:06:10;;;;;;;2.20;0.72;;;;;;;-1.07;48.29;100272.92;1746834;79;21129;-64
2022/01/18 13:08:47;;;;;;;1.70;0.35;;;;;;;-0.97;47.71;100273.84;1771423;79;21092;-65
2022/01/18 13:11:21;;;;;;;2.98;1.00;;;;;;;-0.80;46.92;100290.50;1772083;79;21101;-65
2022/01/18 13:13:54;;;;;;;1.62;0.60;;;;;;;-0.73;45.78;100275.63;1740045;80;21375;-65
2022/01/18 13:29:37;;;;;;;2.98;0.85;;;;;;;-0.90;46.79;100295.14;1635198;85;21112;-65
2022/01/18 13:32:14;;;;;;;2.25;0.53;;;;;;;-0.76;46.55;100306.28;1722192;79;21137;-65
2022/01/18 13:34:40;;;;;;;2.58;0.70;;;;;;;-0.82;47.25;100327.19;1746341;79;22018;-65